createdAt,value
2022-10-12T00:01:10.506Z,70.02
2022-10-12T00:03:38.368Z,70.35
2022-10-12T00:06:17.239Z,70.13
2022-10-12T00:08:46.344Z,70.04
2022-10-12T00:11:21.853Z,69.96
2022-10-12T00:13:49.373Z,70.13
2022-10-12T00:16:19.820Z,70.04
2022-10-12T00:18:52.312Z,72.37
2022-10-12T00:21:20.927Z,74.36
2022-10-12T00:23:48.807Z,73.57
2022-10-12T00:26:21.283Z,73.27
2022-10-12T00:28:49.175Z,73.40
2022-10-12T00:31:20.971Z,73.05
2022-10-12T00:33:48.654Z,72.17
2022-10-12T00:36:27.380Z,71.49
2022-10-12T00:38:56.602Z,71.33
2022-10-12T00:41:29.590Z,71.00
2022-10-12T00:43:58.879Z,70.85
2022-10-12T00:46:46.236Z,70.63
2022-10-12T00:49:26.460Z,70.58
2022-10-12T00:52:00.652Z,70.53
2022-10-12T00:54:36.469Z,70.24
2022-10-12T00:57:06.321Z,70.54
2022-10-12T00:59:43.784Z,70.34
2022-10-12T01:02:12.814Z,70.62
2022-10-12T01:04:41.458Z,71.00
2022-10-12T01:07:08.715Z,72.76
2022-10-12T01:09:36.850Z,72.90
2022-10-12T01:12:07.350Z,73.65
2022-10-12T01:14:36.039Z,73.47
2022-10-12T01:17:35.470Z,73.33
2022-10-12T01:20:46.887Z,73.52
2022-10-12T01:23:17.399Z,72.67
2022-10-12T01:26:34.338Z,72.38
2022-10-12T01:29:22.859Z,71.81
2022-10-12T01:32:03.208Z,71.82
2022-10-12T01:35:00.525Z,71.67
2022-10-12T01:37:52.582Z,72.54
2022-10-12T01:40:44.344Z,72.59
2022-10-12T01:43:11.748Z,72.28
2022-10-12T01:45:39.089Z,72.04
2022-10-12T01:48:07.428Z,72.36
2022-10-12T01:50:51.226Z,72.46
2022-10-12T01:53:53.569Z,72.43
2022-10-12T01:56:31.464Z,72.24
2022-10-12T01:59:31.418Z,72.66
2022-10-12T02:02:12.063Z,72.57
2022-10-12T02:04:52.000Z,72.87
2022-10-12T02:07:48.412Z,73.05
2022-10-12T02:10:28.142Z,73.29
2022-10-12T02:13:01.129Z,74.32
2022-10-12T02:15:30.594Z,75.06
2022-10-12T02:17:59.236Z,74.87
2022-10-12T02:20:28.372Z,74.53
2022-10-12T02:22:56.084Z,74.25
2022-10-12T02:25:27.430Z,74.19
2022-10-12T02:28:05.653Z,74.26
2022-10-12T02:30:43.727Z,74.12
2022-10-12T02:33:35.806Z,73.80
2022-10-12T02:36:15.790Z,73.38
2022-10-12T02:38:57.521Z,73.08
2022-10-12T02:41:36.335Z,73.24
2022-10-12T02:44:10.197Z,73.04
2022-10-12T02:46:40.159Z,73.09
2022-10-12T02:49:08.515Z,72.96
2022-10-12T02:51:39.047Z,72.91
2022-10-12T02:54:06.233Z,72.99
2022-10-12T02:56:33.579Z,72.83
2022-10-12T02:59:00.816Z,72.79
2022-10-12T03:01:28.072Z,72.82
2022-10-12T03:03:55.470Z,72.80
2022-10-12T03:06:22.674Z,72.52
2022-10-12T03:08:49.979Z,72.73
2022-10-12T03:11:17.403Z,74.63
2022-10-12T03:13:44.618Z,75.32
2022-10-12T03:16:12.092Z,75.77
2022-10-12T03:18:40.130Z,77.18
2022-10-12T03:21:07.739Z,77.76
2022-10-12T03:23:34.985Z,78.23
2022-10-12T03:26:02.480Z,78.30
2022-10-12T03:28:29.957Z,78.56
2022-10-12T03:30:59.753Z,77.76
2022-10-12T03:33:27.412Z,78.03
2022-10-12T03:35:54.831Z,77.76
2022-10-12T03:38:22.341Z,77.77
2022-10-12T03:40:49.887Z,77.56
2022-10-12T03:43:17.416Z,77.42
2022-10-12T03:45:44.870Z,77.48
2022-10-12T03:48:12.155Z,77.19
2022-10-12T03:50:40.284Z,77.11
2022-10-12T03:53:07.785Z,76.72
2022-10-12T03:55:35.251Z,76.49
2022-10-12T03:58:02.468Z,76.40
2022-10-12T04:00:30.563Z,77.00
2022-10-12T04:02:57.812Z,78.13
2022-10-12T04:05:25.096Z,77.52
2022-10-12T04:07:52.548Z,77.05
2022-10-12T04:10:19.880Z,77.33
2022-10-12T04:12:47.168Z,77.44
2022-10-12T04:15:15.061Z,77.42
2022-10-12T04:17:42.480Z,77.42
2022-10-12T04:20:11.580Z,77.81
2022-10-12T04:22:40.067Z,77.25
2022-10-12T04:25:08.040Z,77.10
2022-10-12T04:27:35.331Z,77.02
2022-10-12T04:30:03.041Z,76.81
2022-10-12T04:32:31.031Z,76.60
2022-10-12T04:34:58.470Z,76.49
2022-10-12T04:37:28.162Z,76.75
2022-10-12T04:39:55.903Z,76.66
2022-10-12T04:42:23.076Z,76.39
2022-10-12T04:44:50.556Z,76.10
2022-10-12T04:47:17.826Z,75.92
2022-10-12T04:49:45.478Z,75.65
2022-10-12T04:52:12.829Z,75.27
2022-10-12T04:54:41.077Z,75.26
2022-10-12T04:57:08.471Z,75.13
2022-10-12T04:59:35.971Z,74.71
2022-10-12T05:02:03.125Z,75.01
2022-10-12T05:04:30.623Z,74.97
2022-10-12T05:06:58.074Z,74.83
2022-10-12T05:09:25.364Z,75.06
2022-10-12T05:11:52.720Z,75.02
2022-10-12T05:14:20.074Z,74.99
2022-10-12T05:16:48.539Z,75.13
2022-10-12T05:19:16.035Z,75.34
2022-10-12T05:21:43.648Z,75.02
2022-10-12T05:24:11.404Z,74.77
2022-10-12T05:26:38.825Z,74.51
2022-10-12T05:29:06.085Z,74.33
2022-10-12T05:31:33.564Z,74.10
2022-10-12T05:34:01.160Z,73.85
2022-10-12T05:36:28.594Z,73.74
2022-10-12T05:38:55.958Z,73.66
2022-10-12T05:41:23.442Z,73.54
2022-10-12T05:43:50.698Z,73.15
2022-10-12T05:46:18.194Z,73.21
2022-10-12T05:48:45.367Z,73.17
2022-10-12T05:51:12.780Z,72.79
2022-10-12T05:53:40.173Z,72.39
2022-10-12T05:56:08.610Z,72.36
2022-10-12T05:58:35.884Z,72.04
2022-10-12T06:01:14.519Z,71.90
2022-10-12T06:03:43.656Z,73.24
2022-10-12T06:06:11.844Z,74.10
2022-10-12T06:08:39.586Z,73.87
2022-10-12T06:11:07.655Z,73.98
2022-10-12T06:13:34.846Z,73.59
2022-10-12T06:16:02.231Z,73.58
2022-10-12T06:18:29.460Z,74.15
2022-10-12T06:21:28.371Z,73.88
2022-10-12T06:23:44.492Z,73.60
2022-10-12T06:26:16.498Z,73.62
2022-10-12T06:28:44.327Z,73.50
2022-10-12T06:31:11.915Z,73.49
2022-10-12T06:33:39.516Z,73.03
2022-10-12T06:36:07.507Z,72.72
2022-10-12T06:38:34.809Z,72.32
2022-10-12T06:41:02.290Z,71.98
2022-10-12T06:43:29.476Z,72.25
2022-10-12T06:46:03.601Z,72.16
2022-10-12T06:48:31.351Z,71.63
2022-10-12T06:50:58.819Z,71.59
2022-10-12T06:53:28.867Z,71.40
2022-10-12T06:55:56.486Z,71.10
2022-10-12T06:58:23.847Z,70.66
2022-10-12T07:00:52.488Z,70.43
2022-10-12T07:03:20.396Z,69.94
2022-10-12T07:05:47.935Z,69.85
2022-10-12T07:08:15.143Z,69.79
2022-10-12T07:10:42.571Z,69.57
2022-10-12T07:13:09.783Z,69.43
2022-10-12T07:15:37.209Z,69.34
2022-10-12T07:18:04.486Z,69.04
2022-10-12T07:20:32.161Z,68.97
2022-10-12T07:22:59.344Z,68.86
2022-10-12T07:25:26.746Z,68.70
2022-10-12T07:27:54.020Z,68.19
2022-10-12T07:30:21.441Z,67.25
2022-10-12T07:32:48.628Z,66.77
2022-10-12T07:35:16.055Z,62.59
2022-10-12T07:37:43.151Z,54.85
2022-10-12T07:40:10.686Z,48.96
2022-10-12T07:42:53.706Z,43.40
2022-10-12T07:45:28.731Z,38.91
2022-10-12T07:47:56.688Z,35.72
2022-10-12T07:50:25.295Z,32.81
2022-10-12T07:52:52.730Z,31.55
2022-10-12T07:55:20.031Z,30.40
2022-10-12T07:57:47.391Z,29.38
2022-10-12T08:00:15.212Z,28.28
2022-10-12T08:02:42.853Z,26.25
2022-10-12T08:05:10.241Z,24.89
2022-10-12T08:07:37.890Z,23.18
2022-10-12T08:10:05.959Z,22.73
2022-10-12T08:12:33.427Z,22.11
2022-10-12T08:15:00.913Z,21.39
2022-10-12T08:17:28.479Z,20.76
2022-10-12T08:19:55.673Z,19.67
2022-10-12T08:22:23.290Z,18.36
2022-10-12T08:24:50.437Z,17.65
2022-10-12T08:27:17.846Z,17.56
2022-10-12T08:29:45.023Z,16.89
2022-10-12T08:32:12.461Z,16.96
2022-10-12T08:34:39.753Z,15.32
2022-10-12T08:37:07.115Z,15.44
2022-10-12T08:39:34.334Z,15.22
2022-10-12T08:42:24.213Z,14.45
2022-10-12T08:45:38.111Z,14.03
2022-10-12T08:48:26.277Z,12.92
2022-10-12T08:51:11.167Z,12.57
2022-10-12T08:53:55.745Z,11.95
2022-10-12T08:56:23.447Z,11.29
2022-10-12T08:58:54.587Z,10.95
2022-10-12T09:01:59.870Z,11.11
2022-10-12T09:04:54.864Z,10.04
2022-10-12T09:07:30.689Z,10.25
2022-10-12T09:10:17.956Z,11.01
2022-10-12T09:13:14.809Z,11.44
2022-10-12T09:16:02.544Z,11.65
2022-10-12T09:18:49.758Z,10.38
2022-10-12T09:21:20.940Z,10.19
2022-10-12T09:23:49.353Z,9.85
2022-10-12T09:26:43.851Z,10.26
2022-10-12T09:29:31.647Z,10.38
2022-10-12T09:32:56.207Z,10.41
2022-10-12T09:35:24.959Z,11.13
2022-10-12T09:37:54.547Z,12.63
2022-10-12T09:40:30.972Z,13.49
2022-10-12T09:43:01.678Z,11.72
2022-10-12T09:45:34.298Z,13.77
2022-10-12T09:48:24.841Z,14.95
2022-10-12T09:51:03.263Z,16.62
2022-10-12T09:53:41.720Z,15.85
2022-10-12T09:56:24.685Z,17.68
2022-10-12T09:58:56.859Z,19.66
2022-10-12T10:01:30.757Z,20.28
2022-10-12T10:04:24.088Z,21.31
2022-10-12T10:06:51.609Z,18.26
2022-10-12T10:09:38.989Z,20.18
2022-10-12T10:12:27.298Z,20.31
2022-10-12T10:14:57.419Z,16.73
2022-10-12T10:17:37.378Z,17.52
2022-10-12T10:20:08.389Z,16.81
2022-10-12T10:22:35.771Z,19.08
2022-10-12T10:25:03.029Z,20.97
2022-10-12T10:27:40.438Z,22.01
2022-10-12T10:30:35.199Z,23.32
2022-10-12T10:33:19.095Z,24.56
2022-10-12T10:36:05.074Z,21.49
2022-10-12T10:38:57.811Z,21.91
2022-10-12T10:41:33.263Z,21.69
2022-10-12T10:44:00.443Z,17.30
2022-10-12T10:46:33.102Z,14.20
2022-10-12T10:49:07.601Z,12.46
2022-10-12T10:51:48.492Z,11.25
2022-10-12T10:54:23.736Z,11.21
2022-10-12T10:56:59.155Z,11.17
2022-10-12T10:59:41.337Z,10.06
2022-10-12T11:02:47.035Z,10.87
2022-10-12T11:05:22.206Z,10.08
2022-10-12T11:08:11.179Z,9.66
2022-10-12T11:10:52.433Z,11.34
2022-10-12T11:13:39.917Z,11.81
2022-10-12T11:16:51.296Z,10.84
2022-10-12T11:19:30.349Z,9.86
2022-10-12T11:22:05.788Z,9.10
2022-10-12T11:24:46.065Z,8.65
2022-10-12T11:27:28.143Z,8.77
2022-10-12T11:30:09.210Z,8.40
2022-10-12T11:33:07.922Z,8.16
2022-10-12T11:35:43.937Z,7.62
2022-10-12T11:38:16.496Z,8.15
2022-10-12T11:41:18.969Z,8.09
2022-10-12T11:44:00.733Z,7.38
2022-10-12T11:46:40.231Z,8.00
2022-10-12T11:49:34.626Z,7.17
2022-10-12T11:52:28.895Z,7.43
2022-10-12T11:55:31.344Z,7.54
2022-10-12T11:58:13.134Z,7.68
2022-10-12T12:00:56.235Z,7.40
2022-10-12T12:03:45.379Z,7.62
2022-10-12T12:06:30.626Z,7.55
2022-10-12T12:09:04.005Z,6.91
2022-10-12T12:11:34.957Z,6.65
2022-10-12T12:14:21.049Z,6.69
2022-10-12T12:16:49.766Z,5.87
2022-10-12T12:19:43.114Z,6.59
2022-10-12T12:22:29.273Z,6.73
2022-10-12T12:25:10.613Z,6.65
2022-10-12T12:27:50.890Z,6.85
2022-10-12T12:30:18.241Z,6.92
2022-10-12T12:33:00.025Z,7.21
2022-10-12T12:35:29.505Z,8.62
2022-10-12T12:38:17.906Z,8.03
2022-10-12T12:41:05.416Z,7.88
2022-10-12T12:43:32.635Z,7.54
2022-10-12T12:46:14.917Z,7.29
2022-10-12T12:48:42.054Z,7.55
2022-10-12T12:51:14.105Z,7.96
2022-10-12T12:54:06.604Z,8.58
2022-10-12T12:56:45.778Z,10.43
2022-10-12T12:59:49.657Z,9.42
2022-10-12T13:02:49.339Z,9.15
2022-10-12T13:06:06.507Z,8.75
2022-10-12T13:08:52.007Z,9.23
2022-10-12T13:11:58.975Z,9.36
2022-10-12T13:15:03.330Z,9.99
2022-10-12T13:18:00.943Z,12.71
2022-10-12T13:20:34.394Z,11.67
2022-10-12T13:23:09.058Z,12.83
2022-10-12T13:25:46.352Z,13.35
2022-10-12T13:28:32.796Z,14.93
2022-10-12T13:31:14.658Z,13.19
2022-10-12T13:33:59.175Z,12.64
2022-10-12T13:36:31.559Z,11.99
2022-10-12T13:39:16.346Z,11.79
2022-10-12T13:41:46.399Z,11.41
2022-10-12T13:44:34.642Z,11.01
2022-10-12T13:47:21.251Z,10.48
2022-10-12T13:49:48.609Z,10.17
2022-10-12T13:52:26.187Z,10.01
2022-10-12T13:54:58.231Z,9.74
2022-10-12T13:57:41.066Z,9.59
2022-10-12T14:00:14.392Z,9.63
2022-10-12T14:02:53.224Z,9.50
2022-10-12T14:05:24.888Z,9.43
2022-10-12T14:07:57.522Z,9.48
2022-10-12T14:10:37.380Z,9.50
2022-10-12T14:13:07.317Z,9.39
2022-10-12T14:15:41.022Z,9.66
2022-10-12T14:18:42.382Z,10.00
2022-10-12T14:21:34.600Z,10.14
2022-10-12T14:24:10.550Z,10.40
2022-10-12T14:26:42.394Z,10.73
2022-10-12T14:29:40.988Z,11.04
2022-10-12T14:32:39.355Z,11.36
2022-10-12T14:35:18.702Z,11.68
2022-10-12T14:37:47.717Z,11.28
2022-10-12T14:40:28.645Z,11.18
2022-10-12T14:43:08.163Z,12.26
2022-10-12T14:45:39.434Z,12.17
2022-10-12T14:48:18.008Z,12.47
2022-10-12T14:50:45.866Z,12.90
2022-10-12T14:53:15.422Z,12.97
2022-10-12T14:55:44.694Z,13.69
2022-10-12T14:58:17.330Z,13.71
2022-10-12T15:00:45.190Z,14.45
2022-10-12T15:03:12.772Z,15.10
2022-10-12T15:05:40.119Z,16.33
2022-10-12T15:08:09.176Z,16.90
2022-10-12T15:10:37.685Z,18.61
2022-10-12T15:13:05.364Z,19.70
2022-10-12T15:15:42.656Z,21.85
2022-10-12T15:18:10.686Z,23.15
2022-10-12T15:20:38.929Z,25.31
2022-10-12T15:23:06.824Z,25.63
2022-10-12T15:25:56.916Z,26.53
2022-10-12T15:28:24.519Z,26.54
2022-10-12T15:31:15.818Z,28.29
2022-10-12T15:33:41.722Z,29.24
2022-10-12T15:36:09.822Z,30.07
2022-10-12T15:38:37.846Z,31.04
2022-10-12T15:41:05.832Z,32.75
2022-10-12T15:43:35.703Z,34.16
2022-10-12T15:46:05.624Z,34.59
2022-10-12T15:48:33.049Z,35.58
2022-10-12T15:51:00.325Z,35.43
2022-10-12T15:53:27.847Z,36.91
2022-10-12T15:55:56.102Z,36.62
2022-10-12T15:58:24.318Z,36.87
2022-10-12T16:00:51.636Z,37.06
2022-10-12T16:03:25.621Z,37.69
2022-10-12T16:05:54.537Z,38.56
2022-10-12T16:08:22.828Z,39.28
2022-10-12T16:10:51.086Z,40.10
2022-10-12T16:13:18.990Z,40.10
2022-10-12T16:15:46.387Z,40.64
2022-10-12T16:18:16.786Z,42.15
2022-10-12T16:20:47.632Z,42.42
2022-10-12T16:23:28.676Z,42.95
2022-10-12T16:25:57.158Z,42.45
2022-10-12T16:28:25.991Z,42.91
2022-10-12T16:30:54.414Z,42.55
2022-10-12T16:33:22.227Z,43.22
2022-10-12T16:35:49.484Z,42.82
2022-10-12T16:38:19.814Z,43.89
2022-10-12T16:40:50.767Z,44.07
2022-10-12T16:43:19.475Z,45.80
2022-10-12T16:45:55.949Z,45.02
2022-10-12T16:48:23.427Z,45.05
2022-10-12T16:50:50.661Z,45.43
2022-10-12T16:53:18.173Z,45.11
2022-10-12T16:55:45.910Z,45.51
2022-10-12T16:58:13.345Z,45.63
2022-10-12T17:00:42.350Z,45.81
2022-10-12T17:03:13.869Z,46.34
2022-10-12T17:05:42.539Z,47.97
2022-10-12T17:08:15.125Z,48.32
2022-10-12T17:10:44.725Z,48.63
2022-10-12T17:13:13.623Z,48.71
2022-10-12T17:15:44.140Z,48.99
2022-10-12T17:18:11.554Z,48.85
2022-10-12T17:20:38.781Z,49.89
2022-10-12T17:23:06.448Z,49.39
2022-10-12T17:25:33.747Z,49.78
2022-10-12T17:28:01.221Z,50.34
2022-10-12T17:30:28.491Z,50.86
2022-10-12T17:32:55.884Z,53.23
2022-10-12T17:35:23.449Z,52.28
2022-10-12T17:37:50.833Z,51.87
2022-10-12T17:40:18.325Z,52.31
2022-10-12T17:42:45.765Z,52.22
2022-10-12T17:45:13.443Z,51.80
2022-10-12T17:47:40.933Z,52.05
2022-10-12T17:50:08.891Z,52.97
2022-10-12T17:52:39.699Z,52.65
2022-10-12T17:55:09.387Z,52.74
2022-10-12T17:57:42.707Z,52.91
2022-10-12T18:00:11.187Z,53.04
2022-10-12T18:02:38.497Z,53.16
2022-10-12T18:05:06.343Z,53.37
2022-10-12T18:07:33.890Z,53.45
2022-10-12T18:10:01.129Z,54.26
2022-10-12T18:12:28.835Z,55.14
2022-10-12T18:14:56.093Z,56.84
2022-10-12T18:17:23.383Z,57.04
2022-10-12T18:19:51.655Z,57.06
2022-10-12T18:22:19.150Z,57.17
2022-10-12T18:24:49.007Z,58.12
2022-10-12T18:27:16.506Z,57.19
2022-10-12T18:29:44.018Z,57.18
2022-10-12T18:32:12.925Z,58.04
2022-10-12T18:34:43.526Z,59.40
2022-10-12T18:37:10.748Z,58.55
2022-10-12T18:39:40.227Z,58.57
2022-10-12T18:42:07.527Z,59.31
2022-10-12T18:44:35.011Z,59.47
2022-10-12T18:47:02.330Z,58.91
2022-10-12T18:49:29.839Z,59.00
2022-10-12T18:51:57.161Z,58.80
2022-10-12T18:54:24.631Z,58.58
2022-10-12T18:56:51.912Z,59.33
2022-10-12T18:59:20.399Z,59.64
2022-10-12T19:01:47.659Z,59.25
2022-10-12T19:04:15.058Z,59.53
2022-10-12T19:06:43.255Z,59.55
2022-10-12T19:09:13.769Z,59.42
2022-10-12T19:11:41.477Z,59.35
2022-10-12T19:14:15.976Z,59.63
2022-10-12T19:16:44.799Z,59.92
2022-10-12T19:19:20.829Z,59.89
2022-10-12T19:21:51.671Z,59.70
2022-10-12T19:24:21.461Z,59.69
2022-10-12T19:26:49.417Z,59.79
2022-10-12T19:29:17.061Z,60.16
2022-10-12T19:31:47.960Z,60.09
2022-10-12T19:34:19.409Z,61.81
2022-10-12T19:36:48.343Z,61.54
2022-10-12T19:39:21.237Z,62.66
2022-10-12T19:41:50.783Z,63.11
2022-10-12T19:44:19.395Z,63.40
2022-10-12T19:46:48.939Z,63.27
2022-10-12T19:49:18.601Z,63.27
2022-10-12T19:51:46.720Z,62.92
2022-10-12T19:54:15.953Z,62.26
2022-10-12T19:56:43.509Z,62.73
2022-10-12T19:59:11.352Z,63.50
2022-10-12T20:01:40.445Z,63.76
2022-10-12T20:04:10.172Z,63.00
2022-10-12T20:06:38.321Z,63.06
2022-10-12T20:09:08.391Z,63.78
2022-10-12T20:11:38.390Z,63.17
2022-10-12T20:14:06.872Z,62.83
2022-10-12T20:16:36.309Z,63.60
2022-10-12T20:19:06.955Z,63.11
2022-10-12T20:21:36.560Z,62.86
2022-10-12T20:24:04.174Z,62.95
2022-10-12T20:26:31.694Z,63.22
2022-10-12T20:28:58.931Z,63.23
2022-10-12T20:31:28.041Z,63.44
2022-10-12T20:33:58.015Z,63.37
2022-10-12T20:36:30.612Z,63.32
2022-10-12T20:38:59.891Z,63.53
2022-10-12T20:41:28.881Z,63.70
2022-10-12T20:43:59.037Z,64.11
2022-10-12T20:46:28.814Z,64.87
2022-10-12T20:48:59.687Z,64.45
2022-10-12T20:51:44.591Z,64.68
2022-10-12T20:54:18.766Z,64.85
2022-10-12T20:56:49.485Z,64.62
2022-10-12T20:59:16.978Z,65.25
2022-10-12T21:01:44.579Z,65.47
2022-10-12T21:04:11.938Z,65.92
2022-10-12T21:06:39.865Z,66.12
2022-10-12T21:09:07.165Z,66.20
2022-10-12T21:11:34.628Z,65.80
2022-10-12T21:14:02.180Z,65.96
2022-10-12T21:16:29.822Z,65.64
2022-10-12T21:18:57.139Z,66.07
2022-10-12T21:21:25.209Z,65.96
2022-10-12T21:24:01.441Z,66.77
2022-10-12T21:26:31.659Z,67.06
2022-10-12T21:29:00.274Z,67.09
2022-10-12T21:31:32.409Z,67.25
2022-10-12T21:34:05.704Z,68.33
2022-10-12T21:36:36.565Z,68.61
2022-10-12T21:39:16.870Z,68.94
2022-10-12T21:41:44.343Z,71.31
2022-10-12T21:44:12.695Z,71.91
2022-10-12T21:46:40.383Z,73.40
2022-10-12T21:49:08.472Z,75.03
2022-10-12T21:51:37.828Z,76.13
2022-10-12T21:54:06.905Z,75.42
2022-10-12T21:56:36.746Z,76.75
2022-10-12T21:59:06.365Z,75.72
2022-10-12T22:01:40.449Z,76.04
2022-10-12T22:04:13.768Z,74.95
2022-10-12T22:06:43.295Z,74.47
2022-10-12T22:09:16.622Z,73.87
2022-10-12T22:11:44.134Z,73.52
2022-10-12T22:14:18.655Z,73.52
2022-10-12T22:16:46.800Z,73.33
2022-10-12T22:19:19.886Z,73.52
2022-10-12T22:21:51.261Z,73.12
2022-10-12T22:24:20.219Z,73.33
2022-10-12T22:26:47.790Z,73.12
2022-10-12T22:29:15.169Z,73.04
2022-10-12T22:31:44.412Z,72.93
2022-10-12T22:34:11.785Z,73.19
2022-10-12T22:36:38.987Z,72.86
2022-10-12T22:39:06.477Z,73.32
2022-10-12T22:41:33.728Z,73.20
2022-10-12T22:44:00.912Z,73.15
2022-10-12T22:46:28.374Z,73.54
2022-10-12T22:48:55.796Z,73.76
2022-10-12T22:51:32.977Z,73.99
2022-10-12T22:54:02.324Z,73.69
2022-10-12T22:56:30.249Z,74.34
2022-10-12T22:59:01.538Z,74.45
2022-10-12T23:01:29.700Z,74.40
2022-10-12T23:03:57.090Z,74.68
2022-10-12T23:06:25.685Z,74.65
2022-10-12T23:08:53.801Z,74.24
2022-10-12T23:11:28.343Z,74.20
2022-10-12T23:13:57.820Z,74.12
2022-10-12T23:16:31.350Z,74.25
2022-10-12T23:19:03.018Z,74.40
2022-10-12T23:21:31.798Z,74.37
2022-10-12T23:24:01.299Z,74.42
2022-10-12T23:26:29.755Z,74.25
2022-10-12T23:28:57.532Z,74.06
2022-10-12T23:31:28.626Z,74.24
2022-10-12T23:34:02.978Z,74.05
2022-10-12T23:36:31.293Z,74.18
2022-10-12T23:39:05.105Z,73.91
2022-10-12T23:41:32.597Z,74.28
2022-10-12T23:44:00.055Z,74.04
2022-10-12T23:46:27.364Z,73.38
2022-10-12T23:48:54.726Z,72.95
2022-10-12T23:51:22.232Z,72.90
2022-10-12T23:53:49.528Z,72.69
2022-10-12T23:56:16.994Z,72.53
2022-10-12T23:58:44.444Z,72.56
